Jensen Beach, Florida
Current Conditions -  °F | °C
As of 5:15 AM on Friday 21 Nov 2014 (Local Time) from KSUA Reporting Station
Broken Clouds Broken Clouds  
Wind Chill: 70°   Ceiling: 12000
Heat Index: 70°   Visibility: 10mi
Dew Point: 59°   Wind: 13mph
Humidity: 68%   Direction: 50°NE
Pressure: 30.16"   Gusts: NA
Location:  27.26°N, 80.23°W
Report Text: KSUA 211015Z AUTO 05011KT 10SM SCT036 BKN120 21/15 A3016 RMK AO2
Loading
Personal Weather Stations






























Interactive Weather Map New forecast layout! Learn more

10-Day Weather Forecast

Advertisements
Track Severe Weather on mobile